createdAt,value
2018-10-05T00:00:08.082Z,11.31
2018-10-05T00:00:43.938Z,11.28
2018-10-05T00:01:19.549Z,11.31
2018-10-05T00:01:54.863Z,11.27
2018-10-05T00:02:30.015Z,11.31
2018-10-05T00:03:05.235Z,11.19
2018-10-05T00:03:40.674Z,11.28
2018-10-05T00:04:15.967Z,11.19
2018-10-05T00:04:51.313Z,11.14
2018-10-05T00:05:26.607Z,11.20
2018-10-05T00:06:02.053Z,11.17
2018-10-05T00:06:37.616Z,11.20
2018-10-05T00:07:12.958Z,11.11
2018-10-05T00:07:48.059Z,11.13
2018-10-05T00:08:23.282Z,11.19
2018-10-05T00:08:58.527Z,11.16
2018-10-05T00:09:33.942Z,11.14
2018-10-05T00:10:09.565Z,11.17
2018-10-05T00:10:44.920Z,11.09
2018-10-05T00:11:21.745Z,11.17
2018-10-05T00:11:56.813Z,11.09
2018-10-05T00:12:31.992Z,11.10
2018-10-05T00:13:07.038Z,11.14
2018-10-05T00:13:42.592Z,11.07
2018-10-05T00:14:18.222Z,11.09
2018-10-05T00:14:53.556Z,11.09
2018-10-05T00:15:28.799Z,11.11
2018-10-05T00:16:04.495Z,11.11
2018-10-05T00:16:40.074Z,11.09
2018-10-05T00:17:15.590Z,11.09
2018-10-05T00:17:51.135Z,10.99
2018-10-05T00:18:26.969Z,11.10
2018-10-05T00:19:02.396Z,11.11
2018-10-05T00:19:37.984Z,10.98
2018-10-05T00:20:13.255Z,11.03
2018-10-05T00:20:48.736Z,11.06
2018-10-05T00:21:24.078Z,11.06
2018-10-05T00:21:59.530Z,11.06
2018-10-05T00:22:34.754Z,11.03
2018-10-05T00:23:10.284Z,11.02
2018-10-05T00:23:45.808Z,11.09
2018-10-05T00:24:21.215Z,10.99
2018-10-05T00:24:56.234Z,11.01
2018-10-05T00:25:31.371Z,11.01
2018-10-05T00:26:06.513Z,10.99
2018-10-05T00:26:41.731Z,10.96
2018-10-05T00:27:17.115Z,10.98
2018-10-05T00:27:52.316Z,11.01
2018-10-05T00:28:27.770Z,11.01
2018-10-05T00:29:03.102Z,10.99
2018-10-05T00:29:38.536Z,10.98
2018-10-05T00:30:13.832Z,10.99
2018-10-05T00:30:49.287Z,11.02
2018-10-05T00:31:24.695Z,10.99
2018-10-05T00:32:00.197Z,10.96
2018-10-05T00:32:35.515Z,10.95
2018-10-05T00:33:10.742Z,10.91
2018-10-05T00:33:46.167Z,10.92
2018-10-05T00:34:21.846Z,10.96
2018-10-05T00:34:57.073Z,10.96
2018-10-05T00:35:32.608Z,10.92
2018-10-05T00:36:08.111Z,10.91
2018-10-05T00:36:43.629Z,10.92
2018-10-05T00:37:19.107Z,10.95
2018-10-05T00:37:54.541Z,10.92
2018-10-05T00:38:30.134Z,10.91
2018-10-05T00:39:05.273Z,10.95
2018-10-05T00:39:40.606Z,10.92
2018-10-05T00:40:15.675Z,10.86
2018-10-05T00:40:50.875Z,10.94
2018-10-05T00:41:26.217Z,10.92
2018-10-05T00:42:01.758Z,10.92
2018-10-05T00:42:37.089Z,10.91
2018-10-05T00:43:12.633Z,10.86
2018-10-05T00:43:47.901Z,10.94
2018-10-05T00:44:23.233Z,10.89
2018-10-05T00:44:58.880Z,10.92
2018-10-05T00:45:34.172Z,10.95
2018-10-05T00:46:09.674Z,10.95
2018-10-05T00:46:45.378Z,10.92
2018-10-05T00:47:20.994Z,10.86
2018-10-05T00:47:56.201Z,10.89
2018-10-05T00:48:31.601Z,10.92
2018-10-05T00:49:07.161Z,10.86
2018-10-05T00:49:42.606Z,10.89
2018-10-05T00:50:18.133Z,10.88
2018-10-05T00:50:53.247Z,10.84
2018-10-05T00:51:28.550Z,10.89
2018-10-05T00:52:03.794Z,10.94
2018-10-05T00:52:40.809Z,10.89
2018-10-05T00:53:16.322Z,10.81
2018-10-05T00:53:51.635Z,10.83
2018-10-05T00:54:26.898Z,10.84
2018-10-05T00:55:02.253Z,10.86
2018-10-05T00:55:37.891Z,10.74
2018-10-05T00:56:13.427Z,10.84
2018-10-05T00:56:48.591Z,10.84
2018-10-05T00:57:24.074Z,10.81
2018-10-05T00:57:59.444Z,10.74
2018-10-05T00:58:35.248Z,10.77
2018-10-05T00:59:10.715Z,10.73
2018-10-05T00:59:46.036Z,10.77
2018-10-05T01:00:21.357Z,10.76
2018-10-05T01:00:56.773Z,10.74
2018-10-05T01:01:32.129Z,10.77
2018-10-05T01:02:07.320Z,10.71
2018-10-05T01:02:42.636Z,10.76
2018-10-05T01:03:17.846Z,10.73
2018-10-05T01:03:52.980Z,10.76
2018-10-05T01:04:28.344Z,10.70
2018-10-05T01:05:03.765Z,10.71
2018-10-05T01:05:39.160Z,10.68
2018-10-05T01:06:14.400Z,10.74
2018-10-05T01:06:50.024Z,10.76
2018-10-05T01:07:26.581Z,10.71
2018-10-05T01:08:02.056Z,10.74
2018-10-05T01:08:37.512Z,10.77
2018-10-05T01:09:12.842Z,10.68
2018-10-05T01:09:48.220Z,10.73
2018-10-05T01:10:23.466Z,10.63
2018-10-05T01:10:59.192Z,10.73
2018-10-05T01:11:34.470Z,10.68
2018-10-05T01:12:09.885Z,10.70
2018-10-05T01:12:45.281Z,10.71
2018-10-05T01:13:20.854Z,10.83
2018-10-05T01:13:56.397Z,10.70
2018-10-05T01:14:31.716Z,10.74
2018-10-05T01:15:07.139Z,10.70
2018-10-05T01:15:42.170Z,10.73
2018-10-05T01:16:17.471Z,10.78
2018-10-05T01:16:52.929Z,10.73
2018-10-05T01:17:28.677Z,10.74
2018-10-05T01:18:03.714Z,10.65
2018-10-05T01:18:39.327Z,10.63
2018-10-05T01:19:14.744Z,10.71
2018-10-05T01:19:50.176Z,10.65
2018-10-05T01:20:25.666Z,10.65
2018-10-05T01:21:01.387Z,10.73
2018-10-05T01:21:36.708Z,10.65
2018-10-05T01:22:12.058Z,10.66
2018-10-05T01:22:47.424Z,10.65
2018-10-05T01:23:23.045Z,10.71
2018-10-05T01:23:58.714Z,10.62
2018-10-05T01:24:34.302Z,10.66
2018-10-05T01:25:10.042Z,10.60
2018-10-05T01:25:45.671Z,10.60
2018-10-05T01:26:21.126Z,10.66
2018-10-05T01:26:56.858Z,10.66
2018-10-05T01:27:31.991Z,10.63
2018-10-05T01:28:07.287Z,10.65
2018-10-05T01:28:42.778Z,10.66
2018-10-05T01:29:18.300Z,10.63
2018-10-05T01:29:53.825Z,10.65
2018-10-05T01:30:29.548Z,10.62
2018-10-05T01:31:05.039Z,10.60
2018-10-05T01:31:40.507Z,10.66
2018-10-05T01:32:15.723Z,10.63
2018-10-05T01:32:51.145Z,10.59
2018-10-05T01:33:26.568Z,10.53
2018-10-05T01:34:02.075Z,10.59
2018-10-05T01:34:37.454Z,10.63
2018-10-05T01:35:12.774Z,10.63
2018-10-05T01:35:48.331Z,10.62
2018-10-05T01:36:23.677Z,10.65
2018-10-05T01:36:59.268Z,10.62
2018-10-05T01:37:34.530Z,10.62
2018-10-05T01:38:09.770Z,10.59
2018-10-05T01:38:45.294Z,10.68
2018-10-05T01:39:20.530Z,10.63
2018-10-05T01:39:55.776Z,10.55
2018-10-05T01:40:31.292Z,10.63
2018-10-05T01:41:06.782Z,10.66
2018-10-05T01:41:42.235Z,10.60
2018-10-05T01:42:17.576Z,10.63
2018-10-05T01:42:54.005Z,10.62
2018-10-05T01:43:29.298Z,10.58
2018-10-05T01:44:04.957Z,10.53
2018-10-05T01:44:40.083Z,10.59
2018-10-05T01:45:15.244Z,10.60
2018-10-05T01:45:50.702Z,10.63
2018-10-05T01:46:26.011Z,10.55
2018-10-05T01:47:01.337Z,10.53
2018-10-05T01:47:36.986Z,10.60
2018-10-05T01:48:12.301Z,10.60
2018-10-05T01:48:47.459Z,10.56
2018-10-05T01:49:22.663Z,10.56
2018-10-05T01:49:57.914Z,10.58
2018-10-05T01:50:33.118Z,10.56
2018-10-05T01:51:08.563Z,10.58
2018-10-05T01:51:43.670Z,10.55
2018-10-05T01:52:19.023Z,10.52
2018-10-05T01:52:54.418Z,10.56
2018-10-05T01:53:29.659Z,10.46
2018-10-05T01:54:04.903Z,10.55
2018-10-05T01:54:40.599Z,10.51
2018-10-05T01:55:15.690Z,10.58
2018-10-05T01:55:51.045Z,10.58
2018-10-05T01:56:26.370Z,10.56
2018-10-05T01:57:01.699Z,10.52
2018-10-05T01:57:37.038Z,10.44
2018-10-05T01:58:12.769Z,10.44
2018-10-05T01:58:48.276Z,10.53
2018-10-05T01:59:23.398Z,10.52
2018-10-05T01:59:58.776Z,10.53
2018-10-05T02:00:34.824Z,10.55
2018-10-05T02:01:10.438Z,10.52
2018-10-05T02:01:45.664Z,10.47
2018-10-05T02:02:21.047Z,10.46
2018-10-05T02:02:56.494Z,10.53
2018-10-05T02:03:31.742Z,10.53
2018-10-05T02:04:07.789Z,10.51
2018-10-05T02:04:43.220Z,10.42
2018-10-05T02:05:18.890Z,10.53
2018-10-05T02:05:54.101Z,10.55
2018-10-05T02:06:29.346Z,10.52
2018-10-05T02:07:04.638Z,10.52
2018-10-05T02:07:40.198Z,10.53
2018-10-05T02:08:15.758Z,10.51
2018-10-05T02:08:51.209Z,10.44
2018-10-05T02:09:26.504Z,10.47
2018-10-05T02:10:02.158Z,10.51
2018-10-05T02:10:37.878Z,10.47
2018-10-05T02:11:13.218Z,10.59
2018-10-05T02:11:48.918Z,10.52
2018-10-05T02:12:24.473Z,10.43
2018-10-05T02:12:59.683Z,10.56
2018-10-05T02:13:35.241Z,10.52
2018-10-05T02:14:11.116Z,10.56
2018-10-05T02:14:46.536Z,10.40
2018-10-05T02:15:21.861Z,10.44
2018-10-05T02:15:57.299Z,10.58
2018-10-05T02:16:32.507Z,10.56
2018-10-05T02:17:08.469Z,10.42
2018-10-05T02:17:43.784Z,10.44
2018-10-05T02:18:19.152Z,10.47
2018-10-05T02:18:54.770Z,10.42
2018-10-05T02:19:30.139Z,10.43
2018-10-05T02:20:05.676Z,10.42
2018-10-05T02:20:42.234Z,10.44
2018-10-05T02:21:17.438Z,10.44
2018-10-05T02:21:52.894Z,10.53
2018-10-05T02:22:28.428Z,10.39
2018-10-05T02:23:03.572Z,10.37
2018-10-05T02:23:38.959Z,10.43
2018-10-05T02:24:14.553Z,10.40
2018-10-05T02:24:50.149Z,10.43
2018-10-05T02:25:25.394Z,10.43
2018-10-05T02:26:00.630Z,10.36
2018-10-05T02:26:36.058Z,10.40
2018-10-05T02:27:11.368Z,10.36
2018-10-05T02:27:46.419Z,10.36
2018-10-05T02:28:21.679Z,10.37
2018-10-05T02:28:57.239Z,10.37
2018-10-05T02:29:32.476Z,10.40
2018-10-05T02:30:07.966Z,10.28
2018-10-05T02:30:44.106Z,10.37
2018-10-05T02:31:19.354Z,10.36
2018-10-05T02:31:54.637Z,10.37
2018-10-05T02:32:30.217Z,10.39
2018-10-05T02:33:05.915Z,10.37
2018-10-05T02:33:41.478Z,10.39
2018-10-05T02:34:17.092Z,10.36
2018-10-05T02:34:53.093Z,10.34
2018-10-05T02:35:28.376Z,10.25
2018-10-05T02:36:03.493Z,10.32
2018-10-05T02:36:38.818Z,10.36
2018-10-05T02:37:14.299Z,10.40
2018-10-05T02:37:50.100Z,10.32
2018-10-05T02:38:25.225Z,10.33
2018-10-05T02:39:00.315Z,10.30
2018-10-05T02:39:35.471Z,10.28
2018-10-05T02:40:11.947Z,10.28
2018-10-05T02:40:47.373Z,10.26
2018-10-05T02:41:22.695Z,10.21
2018-10-05T02:41:58.217Z,10.32
2018-10-05T02:42:33.561Z,10.25
2018-10-05T02:43:09.011Z,10.18
2018-10-05T02:43:43.999Z,10.21
2018-10-05T02:44:19.735Z,10.19
2018-10-05T02:44:54.757Z,10.19
2018-10-05T02:45:30.142Z,10.17
2018-10-05T02:46:05.674Z,10.18
2018-10-05T02:46:41.161Z,10.17
2018-10-05T02:47:16.575Z,10.21
2018-10-05T02:47:53.919Z,10.26
2018-10-05T02:48:29.313Z,10.19
2018-10-05T02:49:04.755Z,10.22
2018-10-05T02:49:40.339Z,10.18
2018-10-05T02:50:15.899Z,10.19
2018-10-05T02:50:51.213Z,10.15
2018-10-05T02:51:26.458Z,10.12
2018-10-05T02:52:02.202Z,10.18
2018-10-05T02:52:37.366Z,10.22
2018-10-05T02:53:12.595Z,10.14
2018-10-05T02:53:48.215Z,10.18
2018-10-05T02:54:23.515Z,10.09
2018-10-05T02:54:58.759Z,10.17
2018-10-05T02:55:35.867Z,10.07
2018-10-05T02:56:11.229Z,10.17
2018-10-05T02:56:46.662Z,10.09
2018-10-05T02:57:21.919Z,10.17
2018-10-05T02:57:57.382Z,10.09
2018-10-05T02:58:32.616Z,10.12
2018-10-05T02:59:08.145Z,10.10
2018-10-05T02:59:43.470Z,10.15
2018-10-05T03:00:18.635Z,10.07
2018-10-05T03:00:54.014Z,10.12
2018-10-05T03:01:29.259Z,10.06
2018-10-05T03:02:04.688Z,10.19
2018-10-05T03:02:40.206Z,10.18
2018-10-05T03:03:15.531Z,10.19
2018-10-05T03:03:51.030Z,10.15
2018-10-05T03:04:26.598Z,10.18
2018-10-05T03:05:02.412Z,10.12
2018-10-05T03:05:37.972Z,10.09
2018-10-05T03:06:13.376Z,10.06
2018-10-05T03:06:48.653Z,10.09
2018-10-05T03:07:24.370Z,10.17
2018-10-05T03:07:59.993Z,10.07
2018-10-05T03:08:35.302Z,10.19
2018-10-05T03:09:10.843Z,10.21
2018-10-05T03:09:46.329Z,10.09
2018-10-05T03:10:21.953Z,10.06
2018-10-05T03:10:57.257Z,10.19
2018-10-05T03:11:32.744Z,10.17
2018-10-05T03:12:07.875Z,10.17
2018-10-05T03:12:43.226Z,10.21
2018-10-05T03:13:18.529Z,10.17
2018-10-05T03:13:53.786Z,10.19
2018-10-05T03:14:29.122Z,10.22
2018-10-05T03:15:04.573Z,10.15
2018-10-05T03:15:40.108Z,10.15
2018-10-05T03:16:15.861Z,10.09
2018-10-05T03:16:51.058Z,10.12
2018-10-05T03:17:26.429Z,10.18
2018-10-05T03:18:01.730Z,10.07
2018-10-05T03:18:37.483Z,10.19
2018-10-05T03:19:12.883Z,10.10
2018-10-05T03:19:48.195Z,10.09
2018-10-05T03:20:23.255Z,10.10
2018-10-05T03:20:58.587Z,10.14
2018-10-05T03:21:33.986Z,9.99
2018-10-05T03:22:09.426Z,10.09
2018-10-05T03:22:44.982Z,10.09
2018-10-05T03:23:20.205Z,10.06
2018-10-05T03:23:55.605Z,10.06
2018-10-05T03:24:30.997Z,10.04
2018-10-05T03:25:06.348Z,10.06
2018-10-05T03:25:42.008Z,10.06
2018-10-05T03:26:17.490Z,10.06
2018-10-05T03:26:52.815Z,10.09
2018-10-05T03:27:27.930Z,10.07
2018-10-05T03:28:03.402Z,10.03
2018-10-05T03:28:38.529Z,10.07
2018-10-05T03:29:13.880Z,10.10
2018-10-05T03:29:49.202Z,10.06
2018-10-05T03:30:24.530Z,10.10
2018-10-05T03:30:59.837Z,10.12
2018-10-05T03:31:35.154Z,10.04
2018-10-05T03:32:10.364Z,10.10
2018-10-05T03:32:45.814Z,10.10
2018-10-05T03:33:21.172Z,10.04
2018-10-05T03:33:56.337Z,10.09
2018-10-05T03:34:31.762Z,10.06
2018-10-05T03:35:07.246Z,10.06
2018-10-05T03:35:42.767Z,10.07
2018-10-05T03:36:18.374Z,9.99
2018-10-05T03:36:53.565Z,10.03
2018-10-05T03:37:28.896Z,9.96
2018-10-05T03:38:04.204Z,9.99
2018-10-05T03:38:39.584Z,9.96
2018-10-05T03:39:15.120Z,10.04
2018-10-05T03:39:50.797Z,9.96
2018-10-05T03:40:25.922Z,9.94
2018-10-05T03:41:01.156Z,9.96
2018-10-05T03:41:36.486Z,9.94
2018-10-05T03:42:11.925Z,10.00
2018-10-05T03:42:47.543Z,9.99
2018-10-05T03:43:22.895Z,9.96
2018-10-05T03:43:58.537Z,9.94
2018-10-05T03:44:33.993Z,9.97
2018-10-05T03:45:09.408Z,9.97
2018-10-05T03:45:44.762Z,9.94
2018-10-05T03:46:19.996Z,9.94
2018-10-05T03:46:55.538Z,9.93
2018-10-05T03:47:31.421Z,9.94
2018-10-05T03:48:07.140Z,9.97
2018-10-05T03:48:42.640Z,9.89
2018-10-05T03:49:17.971Z,9.94
2018-10-05T03:49:53.070Z,9.94
2018-10-05T03:50:28.487Z,9.91
2018-10-05T03:51:03.892Z,9.94
2018-10-05T03:51:39.455Z,9.82
2018-10-05T03:52:14.645Z,9.83
2018-10-05T03:52:50.184Z,9.88
2018-10-05T03:53:25.497Z,9.85
2018-10-05T03:54:01.033Z,9.83
2018-10-05T03:54:36.268Z,9.83
2018-10-05T03:55:11.518Z,9.85
2018-10-05T03:55:47.016Z,9.94
2018-10-05T03:56:22.548Z,9.78
2018-10-05T03:56:57.867Z,9.82
2018-10-05T03:57:33.424Z,9.78
2018-10-05T03:58:09.019Z,9.85
2018-10-05T03:58:44.568Z,9.78
2018-10-05T03:59:20.224Z,9.73
2018-10-05T03:59:55.357Z,9.89
2018-10-05T04:00:30.594Z,9.79
2018-10-05T04:01:06.032Z,9.82
2018-10-05T04:01:41.448Z,9.79
2018-10-05T04:02:16.785Z,9.89
2018-10-05T04:02:51.812Z,9.86
2018-10-05T04:03:27.044Z,9.85
2018-10-05T04:04:02.575Z,9.81
2018-10-05T04:04:37.728Z,9.81
2018-10-05T04:05:12.948Z,9.81
2018-10-05T04:05:48.215Z,9.81
2018-10-05T04:06:23.733Z,9.81
2018-10-05T04:06:58.838Z,9.82
2018-10-05T04:07:34.134Z,9.79
2018-10-05T04:08:09.562Z,9.83
2018-10-05T04:08:44.869Z,9.82
2018-10-05T04:09:20.418Z,9.88
2018-10-05T04:09:56.128Z,9.79
2018-10-05T04:10:31.513Z,9.73
2018-10-05T04:11:06.897Z,9.78
2018-10-05T04:11:42.709Z,9.76
2018-10-05T04:12:18.088Z,9.81
2018-10-05T04:12:53.719Z,9.82
2018-10-05T04:13:29.108Z,9.83
2018-10-05T04:14:04.669Z,9.75
2018-10-05T04:14:39.890Z,9.76
2018-10-05T04:15:15.398Z,9.82
2018-10-05T04:15:50.612Z,9.86
2018-10-05T04:16:25.976Z,9.86
2018-10-05T04:17:01.063Z,9.75
2018-10-05T04:17:36.829Z,9.76
2018-10-05T04:18:12.212Z,9.79
2018-10-05T04:18:47.672Z,9.82
2018-10-05T04:19:23.297Z,9.86
2018-10-05T04:19:58.727Z,9.83
2018-10-05T04:20:34.448Z,9.73
2018-10-05T04:21:10.024Z,9.76
2018-10-05T04:21:45.426Z,9.82
2018-10-05T04:22:20.894Z,9.82
2018-10-05T04:22:55.997Z,9.83
2018-10-05T04:23:31.439Z,9.85
2018-10-05T04:24:06.768Z,9.70
2018-10-05T04:24:41.899Z,9.75
2018-10-05T04:25:17.014Z,9.78
2018-10-05T04:25:52.131Z,9.76
2018-10-05T04:26:27.618Z,9.79
2018-10-05T04:27:03.093Z,9.75
2018-10-05T04:27:38.291Z,9.63
2018-10-05T04:28:13.392Z,9.76
2018-10-05T04:28:48.707Z,9.70
2018-10-05T04:29:23.842Z,9.68
2018-10-05T04:29:59.065Z,9.64
2018-10-05T04:30:34.240Z,9.76
2018-10-05T04:31:09.753Z,9.68
2018-10-05T04:31:45.504Z,9.61
2018-10-05T04:32:20.717Z,9.70
2018-10-05T04:32:55.849Z,9.64
2018-10-05T04:33:31.099Z,9.64
2018-10-05T04:34:06.641Z,9.66
2018-10-05T04:34:42.146Z,9.61
2018-10-05T04:35:17.494Z,9.66
2018-10-05T04:35:52.902Z,9.64
2018-10-05T04:36:28.148Z,9.60
2018-10-05T04:37:03.756Z,9.50
2018-10-05T04:37:39.252Z,9.57
2018-10-05T04:38:14.399Z,9.58
2018-10-05T04:38:49.737Z,9.52
2018-10-05T04:39:25.082Z,9.58
2018-10-05T04:40:00.876Z,9.58
2018-10-05T04:40:36.312Z,9.61
2018-10-05T04:41:11.604Z,9.61
2018-10-05T04:41:47.234Z,9.60
2018-10-05T04:42:22.947Z,9.60
2018-10-05T04:42:58.104Z,9.56
2018-10-05T04:43:33.543Z,9.50
2018-10-05T04:44:08.970Z,9.57
2018-10-05T04:44:44.490Z,9.58
2018-10-05T04:45:19.912Z,9.57
2018-10-05T04:45:55.251Z,9.61
2018-10-05T04:46:30.581Z,9.56
2018-10-05T04:47:06.222Z,9.57
2018-10-05T04:47:41.720Z,9.53
2018-10-05T04:48:17.380Z,9.56
2018-10-05T04:48:52.719Z,9.57
2018-10-05T04:49:28.183Z,9.58
2018-10-05T04:50:03.787Z,9.53
2018-10-05T04:50:39.127Z,9.53
2018-10-05T04:51:14.252Z,9.46
2018-10-05T04:51:49.630Z,9.58
2018-10-05T04:52:25.058Z,9.58
2018-10-05T04:53:00.728Z,9.53
2018-10-05T04:53:36.382Z,9.48
2018-10-05T04:54:11.600Z,9.57
2018-10-05T04:54:46.805Z,9.48
2018-10-05T04:55:22.078Z,9.56
2018-10-05T04:55:57.645Z,9.46
2018-10-05T04:56:33.287Z,9.53
2018-10-05T04:57:08.638Z,9.49
2018-10-05T04:57:44.440Z,9.49
2018-10-05T04:58:19.781Z,9.52
2018-10-05T04:58:55.097Z,9.48
2018-10-05T04:59:30.410Z,9.48
2018-10-05T05:00:05.932Z,9.48
2018-10-05T05:00:41.334Z,9.49
2018-10-05T05:01:16.990Z,9.46
2018-10-05T05:01:52.109Z,9.49
2018-10-05T05:02:27.421Z,9.53
2018-10-05T05:03:02.896Z,9.46
2018-10-05T05:03:38.228Z,9.49
2018-10-05T05:04:13.295Z,9.49
2018-10-05T05:04:48.689Z,9.45
2018-10-05T05:05:23.940Z,9.49
2018-10-05T05:05:59.302Z,9.40
2018-10-05T05:06:34.580Z,9.49
2018-10-05T05:07:10.151Z,9.46
2018-10-05T05:07:45.617Z,9.43
2018-10-05T05:08:20.923Z,9.43
2018-10-05T05:08:56.404Z,9.45
2018-10-05T05:09:31.662Z,9.39
2018-10-05T05:10:07.277Z,9.48
2018-10-05T05:10:42.687Z,9.42
2018-10-05T05:11:17.974Z,9.49
2018-10-05T05:11:53.434Z,9.45
2018-10-05T05:12:28.809Z,9.32
2018-10-05T05:13:04.098Z,9.46
2018-10-05T05:13:39.451Z,9.39
2018-10-05T05:14:15.022Z,9.42
2018-10-05T05:14:50.688Z,9.49
2018-10-05T05:15:25.949Z,9.42
2018-10-05T05:16:01.490Z,9.40
2018-10-05T05:16:36.828Z,9.40
2018-10-05T05:17:12.052Z,9.40
2018-10-05T05:17:47.405Z,9.46
2018-10-05T05:18:22.822Z,9.49
2018-10-05T05:18:58.000Z,9.45
2018-10-05T05:19:33.778Z,9.48
2018-10-05T05:20:08.887Z,9.46
2018-10-05T05:20:44.170Z,9.52
2018-10-05T05:21:19.501Z,9.45
2018-10-05T05:21:54.780Z,9.50
2018-10-05T05:22:30.586Z,9.46
2018-10-05T05:23:06.311Z,9.50
2018-10-05T05:23:41.531Z,9.43
2018-10-05T05:24:17.020Z,9.45
2018-10-05T05:24:52.586Z,9.49
2018-10-05T05:25:28.073Z,9.46
2018-10-05T05:26:03.649Z,9.52
2018-10-05T05:26:39.168Z,9.57
2018-10-05T05:27:14.472Z,9.52
2018-10-05T05:27:50.093Z,9.56
2018-10-05T05:28:25.595Z,9.58
2018-10-05T05:29:00.830Z,9.50
2018-10-05T05:29:36.111Z,9.56
2018-10-05T05:30:11.561Z,9.57
2018-10-05T05:30:46.746Z,9.58
2018-10-05T05:31:21.877Z,9.53
2018-10-05T05:31:57.256Z,9.56
2018-10-05T05:32:33.372Z,9.53
2018-10-05T05:33:08.828Z,9.56
2018-10-05T05:33:45.601Z,9.57
2018-10-05T05:34:20.862Z,9.64
2018-10-05T05:34:56.333Z,9.66
2018-10-05T05:35:31.569Z,9.52
2018-10-05T05:36:06.801Z,9.46
2018-10-05T05:36:42.405Z,9.49
2018-10-05T05:37:17.783Z,9.53
2018-10-05T05:37:52.991Z,9.56
2018-10-05T05:38:28.336Z,9.46
2018-10-05T05:39:03.729Z,9.57
2018-10-05T05:39:39.256Z,9.52
2018-10-05T05:40:14.645Z,9.52
2018-10-05T05:40:50.347Z,9.52
2018-10-05T05:41:25.619Z,9.56
2018-10-05T05:42:01.030Z,9.56
2018-10-05T05:42:36.541Z,9.50
2018-10-05T05:43:11.858Z,9.58
2018-10-05T05:43:47.316Z,9.53
2018-10-05T05:44:22.678Z,9.57
2018-10-05T05:44:58.010Z,9.53
2018-10-05T05:45:33.689Z,9.52
2018-10-05T05:46:09.008Z,9.52
2018-10-05T05:46:44.418Z,9.63
2018-10-05T05:47:20.239Z,9.58
2018-10-05T05:47:55.620Z,9.56
2018-10-05T05:48:31.443Z,9.56
2018-10-05T05:49:06.808Z,9.61
2018-10-05T05:49:42.337Z,9.57
2018-10-05T05:50:18.202Z,9.52
2018-10-05T05:50:53.553Z,9.58
2018-10-05T05:51:28.882Z,9.53
2018-10-05T05:52:04.332Z,9.60
2018-10-05T05:52:39.658Z,9.56
2018-10-05T05:53:15.288Z,9.52
2018-10-05T05:53:50.603Z,9.52
2018-10-05T05:54:25.940Z,9.61
2018-10-05T05:55:01.175Z,9.58
2018-10-05T05:55:36.643Z,9.52
2018-10-05T05:56:12.318Z,9.57
2018-10-05T05:56:47.944Z,9.58
2018-10-05T05:57:23.290Z,9.60
2018-10-05T05:57:58.916Z,9.56
2018-10-05T05:58:34.359Z,9.53
2018-10-05T05:59:09.870Z,9.52
2018-10-05T05:59:45.418Z,9.50
2018-10-05T06:00:20.895Z,9.64
2018-10-05T06:00:56.230Z,9.67
2018-10-05T06:01:31.555Z,9.56
2018-10-05T06:02:06.902Z,9.57
2018-10-05T06:05:22.152Z,9.53
2018-10-05T06:05:57.576Z,9.63
2018-10-05T06:06:33.062Z,9.61
2018-10-05T06:07:08.464Z,9.58
2018-10-05T06:07:43.685Z,9.60
2018-10-05T06:08:19.473Z,9.53
2018-10-05T06:08:55.254Z,9.57
2018-10-05T06:09:30.537Z,9.67
2018-10-05T06:10:05.849Z,9.57
2018-10-05T06:10:43.174Z,9.60
2018-10-05T06:11:18.587Z,9.63
2018-10-05T06:11:54.711Z,9.53
2018-10-05T06:14:35.061Z,9.67
2018-10-05T06:15:10.236Z,9.66
2018-10-05T06:15:45.949Z,9.68
2018-10-05T06:16:21.102Z,9.64
2018-10-05T06:16:56.285Z,9.66
2018-10-05T06:17:31.778Z,9.76
2018-10-05T06:18:07.441Z,9.64
2018-10-05T06:18:42.882Z,9.70
2018-10-05T06:19:18.461Z,9.60
2018-10-05T06:19:54.099Z,9.75
2018-10-05T06:20:29.480Z,9.60
2018-10-05T06:23:44.912Z,9.71
2018-10-05T06:24:20.239Z,9.71
2018-10-05T06:24:55.684Z,9.75
2018-10-05T06:25:31.302Z,9.83
2018-10-05T06:26:06.802Z,9.79
2018-10-05T06:26:42.221Z,9.86
2018-10-05T06:27:17.665Z,9.79
2018-10-05T06:27:53.042Z,9.83
2018-10-05T06:30:29.823Z,9.88
2018-10-05T06:31:05.055Z,9.89
2018-10-05T06:31:40.534Z,9.88
2018-10-05T06:32:15.912Z,10.00
2018-10-05T06:32:51.373Z,9.91
2018-10-05T06:35:27.917Z,9.96
2018-10-05T06:36:03.470Z,9.99
2018-10-05T06:36:38.679Z,9.97
2018-10-05T06:37:14.191Z,10.00
2018-10-05T06:37:49.797Z,10.03
2018-10-05T06:40:26.570Z,10.12
2018-10-05T06:41:02.220Z,10.18
2018-10-05T06:41:37.644Z,10.22
2018-10-05T06:42:12.813Z,10.22
2018-10-05T06:42:48.227Z,10.24
2018-10-05T06:45:25.624Z,10.51
2018-10-05T06:46:01.126Z,10.42
2018-10-05T06:46:36.425Z,10.52
2018-10-05T06:47:11.791Z,10.55
2018-10-05T06:47:46.974Z,10.58
2018-10-05T06:48:22.391Z,10.65
2018-10-05T06:48:58.039Z,10.77
2018-10-05T06:49:33.178Z,10.86
2018-10-05T06:52:47.504Z,11.14
2018-10-05T06:53:22.882Z,11.17
2018-10-05T06:53:58.110Z,11.25
2018-10-05T06:54:33.407Z,11.29
2018-10-05T06:57:47.839Z,11.53
2018-10-05T06:58:23.063Z,11.67
2018-10-05T06:58:58.355Z,11.74
2018-10-05T06:59:33.913Z,11.83
2018-10-05T07:00:09.259Z,11.82
2018-10-05T07:00:44.734Z,11.82
2018-10-05T07:03:59.114Z,12.11
2018-10-05T07:04:34.545Z,12.15
2018-10-05T07:07:10.977Z,12.39
2018-10-05T07:07:46.468Z,12.41
2018-10-05T07:08:21.728Z,12.37
2018-10-05T07:08:57.334Z,12.42
2018-10-05T07:09:32.560Z,12.45
2018-10-05T07:12:47.002Z,12.71
2018-10-05T07:13:22.384Z,12.71
2018-10-05T07:13:57.825Z,12.78
2018-10-05T07:16:34.562Z,12.82
2018-10-05T07:17:09.934Z,12.93
2018-10-05T07:17:45.217Z,13.02
2018-10-05T07:18:20.646Z,12.97
2018-10-05T07:18:56.119Z,13.02
2018-10-05T07:19:31.441Z,13.12
2018-10-05T07:20:07.075Z,13.12
2018-10-05T07:20:42.503Z,13.15
2018-10-05T07:21:17.628Z,13.18
2018-10-05T07:21:53.014Z,13.27
2018-10-05T07:22:28.291Z,13.40
2018-10-05T07:23:03.919Z,13.52
2018-10-05T07:23:39.246Z,13.51
2018-10-05T07:24:14.622Z,13.56
2018-10-05T07:24:50.081Z,13.61
2018-10-05T07:25:25.319Z,13.67
2018-10-05T07:26:00.645Z,13.69
2018-10-05T07:26:35.969Z,13.81
2018-10-05T07:27:11.261Z,13.83
2018-10-05T07:27:46.709Z,13.91
2018-10-05T07:28:22.263Z,13.99
2018-10-05T07:28:57.529Z,13.98
2018-10-05T07:29:32.720Z,13.99
2018-10-05T07:30:08.183Z,14.04
2018-10-05T07:30:44.240Z,14.01
2018-10-05T07:31:20.022Z,14.12
2018-10-05T07:31:56.723Z,14.14
2018-10-05T07:32:32.132Z,14.27
2018-10-05T07:33:07.772Z,14.09
2018-10-05T07:33:43.117Z,14.17
2018-10-05T07:34:18.563Z,14.31
2018-10-05T07:34:53.922Z,14.25
2018-10-05T07:35:29.432Z,14.27
2018-10-05T07:36:04.913Z,14.37
2018-10-05T07:36:41.211Z,14.39
2018-10-05T07:37:16.862Z,14.50
2018-10-05T07:37:52.235Z,14.53
2018-10-05T07:38:27.670Z,14.64
2018-10-05T07:41:04.177Z,14.84
2018-10-05T07:41:40.411Z,14.95
2018-10-05T07:42:15.912Z,15.05
2018-10-05T07:42:53.165Z,15.05
2018-10-05T07:43:28.343Z,15.11
2018-10-05T07:44:03.796Z,15.17
2018-10-05T07:44:39.409Z,15.15
2018-10-05T07:45:14.559Z,15.19
2018-10-05T07:45:50.473Z,15.20
2018-10-05T07:46:25.586Z,15.23
2018-10-05T07:47:01.232Z,15.23
2018-10-05T07:47:36.550Z,15.21
2018-10-05T07:48:11.688Z,15.06
2018-10-05T07:48:46.779Z,15.11
2018-10-05T07:49:22.399Z,15.20
2018-10-05T07:49:57.745Z,15.09
2018-10-05T07:50:33.167Z,15.08
2018-10-05T07:51:08.775Z,15.13
2018-10-05T07:51:44.164Z,15.27
2018-10-05T07:52:19.403Z,15.24
2018-10-05T07:52:54.615Z,15.03
2018-10-05T07:53:30.016Z,15.05
2018-10-05T07:54:05.321Z,14.91
2018-10-05T07:54:41.138Z,15.02
2018-10-05T07:55:16.350Z,15.01
2018-10-05T07:55:51.891Z,14.88
2018-10-05T07:56:27.633Z,14.88
2018-10-05T07:57:03.199Z,15.01
2018-10-05T07:57:38.624Z,14.99
2018-10-05T07:58:14.267Z,14.99
2018-10-05T07:58:49.832Z,15.13
2018-10-05T07:59:25.348Z,15.19
2018-10-05T08:00:00.653Z,15.27
2018-10-05T08:00:35.947Z,15.27
2018-10-05T08:01:11.388Z,15.33
2018-10-05T08:01:46.807Z,15.43
2018-10-05T08:02:22.151Z,15.51
2018-10-05T08:02:57.985Z,15.39
2018-10-05T08:03:33.406Z,15.57
2018-10-05T08:04:08.705Z,15.70
2018-10-05T08:04:44.169Z,15.56
2018-10-05T08:05:19.699Z,15.60
2018-10-05T08:05:54.967Z,15.67
2018-10-05T08:06:30.250Z,15.59
2018-10-05T08:07:05.494Z,15.64
2018-10-05T08:07:40.818Z,15.82
2018-10-05T08:08:16.158Z,15.88
2018-10-05T08:08:51.522Z,15.92
2018-10-05T08:09:26.772Z,16.09
2018-10-05T08:12:41.436Z,16.55
2018-10-05T08:15:56.033Z,17.07
2018-10-05T08:16:31.175Z,17.20
2018-10-05T08:17:06.413Z,17.08
2018-10-05T08:17:41.939Z,17.25
2018-10-05T08:18:17.397Z,17.28
2018-10-05T08:18:52.696Z,17.40